EZY457 LOWI-LFQQ
Flight info
| Callsign | EZY457 |
|---|---|
| Flight time | 1h 8m |
| Altitude | 34000 |
| Route | KPT L608 SUNEG DCT LIRSU L608 SOGRI UM617 CIV |
| Aircraft | A320/M-SDE3FGHIRWY/LB1 |
Departure
| Time | 2026-05-03 21:30 |
|---|---|
| Airport | Innsbruck Airport (LOWI) |
Arrival
| Time | 2026-05-03 22:38 |
|---|---|
| Airport | Lille Airport (LFQQ) |
| Time | Latitude | Longitude | Altitude | Speed | Heading |
|---|---|---|---|---|---|
| 2026-05-03 21:04 | 47.25821 | 11.35051 | 1849 ft | 0 kts | 171° |
| 2026-05-03 21:22 | 47.25824 | 11.35050 | 1924 ft | 3 kts | 171° |
| 2026-05-03 21:22 | 47.25850 | 11.35041 | 1894 ft | 4 kts | 154° |
| 2026-05-03 21:23 | 47.25870 | 11.35019 | 1897 ft | 4 kts | 114° |
| 2026-05-03 21:23 | 47.25873 | 11.34995 | 1893 ft | 1 kts | 81° |
| 2026-05-03 21:23 | 47.25872 | 11.34991 | 1892 ft | 0 kts | 81° |
| 2026-05-03 21:27 | 47.25876 | 11.35022 | 1897 ft | 5 kts | 80° |
| 2026-05-03 21:27 | 47.25882 | 11.35073 | 1898 ft | 6 kts | 81° |
| 2026-05-03 21:27 | 47.25895 | 11.35194 | 1894 ft | 14 kts | 80° |
| 2026-05-03 21:27 | 47.25945 | 11.35281 | 1895 ft | 11 kts | 2° |
| 2026-05-03 21:28 | 47.26014 | 11.35268 | 1894 ft | 9 kts | 351° |
| 2026-05-03 21:28 | 47.26070 | 11.35254 | 1895 ft | 7 kts | 349° |
| 2026-05-03 21:28 | 47.26111 | 11.35276 | 1891 ft | 9 kts | 53° |
| 2026-05-03 21:28 | 47.26130 | 11.35414 | 1904 ft | 14 kts | 81° |
| 2026-05-03 21:29 | 47.26140 | 11.35548 | 1904 ft | 12 kts | 97° |
| 2026-05-03 21:29 | 47.26111 | 11.35651 | 1904 ft | 10 kts | 93° |
| 2026-05-03 21:29 | 47.26138 | 11.35725 | 1893 ft | 8 kts | 13° |
| 2026-05-03 21:29 | 47.26160 | 11.35678 | 1899 ft | 6 kts | 275° |
| 2026-05-03 21:30 | 47.26156 | 11.35644 | 1900 ft | 10 kts | 261° |
| 2026-05-03 21:30 | 47.26097 | 11.35101 | 1895 ft | 95 kts | 261° |
| 2026-05-03 21:30 | 47.25958 | 11.33796 | 2018 ft | 151 kts | 262° |
| 2026-05-03 21:30 | 47.25815 | 11.32234 | 2839 ft | 159 kts | 261° |
| 2026-05-03 21:31 | 47.25682 | 11.30559 | 3620 ft | 170 kts | 261° |
| 2026-05-03 21:31 | 47.25509 | 11.28748 | 4005 ft | 188 kts | 260° |
| 2026-05-03 21:31 | 47.25392 | 11.26719 | 4320 ft | 211 kts | 280° |
| 2026-05-03 21:31 | 47.25880 | 11.24633 | 4880 ft | 218 kts | 292° |
| 2026-05-03 21:32 | 47.26481 | 11.22538 | 5535 ft | 225 kts | 293° |
| 2026-05-03 21:32 | 47.27113 | 11.20382 | 6210 ft | 234 kts | 292° |
| 2026-05-03 21:32 | 47.27767 | 11.18163 | 6960 ft | 238 kts | 292° |
| 2026-05-03 21:32 | 47.28431 | 11.15904 | 7718 ft | 242 kts | 292° |
| 2026-05-03 21:33 | 47.29101 | 11.13623 | 8481 ft | 245 kts | 291° |
| 2026-05-03 21:33 | 47.29799 | 11.11223 | 8892 ft | 267 kts | 292° |
| 2026-05-03 21:33 | 47.30399 | 11.08525 | 9300 ft | 285 kts | 277° |
| 2026-05-03 21:33 | 47.30461 | 11.05595 | 10016 ft | 291 kts | 265° |
| 2026-05-03 21:34 | 47.30346 | 11.02566 | 10522 ft | 306 kts | 264° |
| 2026-05-03 21:34 | 47.30220 | 10.99315 | 10778 ft | 329 kts | 265° |
| 2026-05-03 21:34 | 47.30090 | 10.95941 | 11327 ft | 338 kts | 265° |
| 2026-05-03 21:34 | 47.29956 | 10.92466 | 12059 ft | 342 kts | 265° |
| 2026-05-03 21:35 | 47.29921 | 10.88949 | 12805 ft | 346 kts | 273° |
| 2026-05-03 21:35 | 47.30416 | 10.85456 | 13501 ft | 352 kts | 287° |
| 2026-05-03 21:35 | 47.31496 | 10.82187 | 14151 ft | 358 kts | 301° |
| 2026-05-03 21:35 | 47.33102 | 10.79358 | 14747 ft | 365 kts | 315° |
| 2026-05-03 21:36 | 47.35004 | 10.76848 | 15411 ft | 368 kts | 316° |
| 2026-05-03 21:36 | 47.36925 | 10.74315 | 16057 ft | 371 kts | 316° |
| 2026-05-03 21:36 | 47.38872 | 10.71778 | 16679 ft | 376 kts | 319° |
| 2026-05-03 21:36 | 47.41014 | 10.69523 | 17280 ft | 380 kts | 323° |
| 2026-05-03 21:37 | 47.43199 | 10.67296 | 17889 ft | 383 kts | 323° |
| 2026-05-03 21:37 | 47.45400 | 10.65051 | 18468 ft | 387 kts | 323° |
| 2026-05-03 21:37 | 47.47621 | 10.62781 | 19005 ft | 390 kts | 323° |
| 2026-05-03 21:37 | 47.49860 | 10.60488 | 19534 ft | 393 kts | 323° |
| 2026-05-03 21:38 | 47.52110 | 10.58180 | 20093 ft | 395 kts | 323° |
| 2026-05-03 21:38 | 47.54375 | 10.55855 | 20625 ft | 397 kts | 323° |
| 2026-05-03 21:38 | 47.56650 | 10.53510 | 21126 ft | 400 kts | 323° |
| 2026-05-03 21:38 | 47.58940 | 10.51147 | 21615 ft | 402 kts | 323° |
| 2026-05-03 21:39 | 47.61245 | 10.48771 | 22087 ft | 405 kts | 323° |
| 2026-05-03 21:39 | 47.63568 | 10.46378 | 22573 ft | 408 kts | 323° |
| 2026-05-03 21:39 | 47.65903 | 10.43971 | 23044 ft | 411 kts | 323° |
| 2026-05-03 21:39 | 47.68256 | 10.41542 | 23518 ft | 413 kts | 323° |
| 2026-05-03 21:40 | 47.70620 | 10.39095 | 23923 ft | 415 kts | 323° |
| 2026-05-03 21:40 | 47.73000 | 10.36630 | 24310 ft | 417 kts | 323° |
| 2026-05-03 21:40 | 47.75365 | 10.34137 | 24707 ft | 419 kts | 321° |
| 2026-05-03 21:40 | 47.77683 | 10.31491 | 25102 ft | 420 kts | 319° |
| 2026-05-03 21:41 | 47.79947 | 10.28740 | 25474 ft | 422 kts | 318° |
| 2026-05-03 21:41 | 47.82194 | 10.25923 | 25861 ft | 423 kts | 317° |
| 2026-05-03 21:41 | 47.84442 | 10.23077 | 26230 ft | 425 kts | 317° |
| 2026-05-03 21:41 | 47.86706 | 10.20228 | 26611 ft | 426 kts | 318° |
| 2026-05-03 21:42 | 47.88985 | 10.17392 | 26986 ft | 428 kts | 318° |
| 2026-05-03 21:42 | 47.91287 | 10.14559 | 27338 ft | 430 kts | 318° |
| 2026-05-03 21:42 | 47.93609 | 10.11720 | 27698 ft | 432 kts | 318° |
| 2026-05-03 21:42 | 47.95942 | 10.08876 | 28055 ft | 434 kts | 318° |
| 2026-05-03 21:43 | 47.98286 | 10.06014 | 28404 ft | 436 kts | 318° |
| 2026-05-03 21:43 | 47.99840 | 10.04113 | 28636 ft | 437 kts | 318° |
| 2026-05-03 21:43 | 48.02196 | 10.01219 | 28952 ft | 440 kts | 318° |
| 2026-05-03 21:43 | 48.04559 | 9.98310 | 29270 ft | 442 kts | 318° |
| 2026-05-03 21:44 | 48.06933 | 9.95381 | 29585 ft | 444 kts | 318° |
| 2026-05-03 21:44 | 48.10097 | 9.91475 | 29995 ft | 446 kts | 318° |
| 2026-05-03 21:44 | 48.11678 | 9.89521 | 30195 ft | 447 kts | 318° |
| 2026-05-03 21:44 | 48.14114 | 9.86507 | 30457 ft | 449 kts | 318° |
| 2026-05-03 21:45 | 48.16520 | 9.83524 | 30735 ft | 450 kts | 317° |
| 2026-05-03 21:45 | 48.18934 | 9.80525 | 30990 ft | 451 kts | 317° |
| 2026-05-03 21:45 | 48.21352 | 9.77513 | 31238 ft | 453 kts | 317° |
| 2026-05-03 21:45 | 48.23780 | 9.74486 | 31526 ft | 453 kts | 317° |
| 2026-05-03 21:46 | 48.26199 | 9.71467 | 31856 ft | 452 kts | 317° |
| 2026-05-03 21:46 | 48.28610 | 9.68457 | 32205 ft | 451 kts | 317° |
| 2026-05-03 21:46 | 48.31025 | 9.65439 | 32549 ft | 450 kts | 317° |
| 2026-05-03 21:46 | 48.33393 | 9.62476 | 32890 ft | 449 kts | 317° |
| 2026-05-03 21:47 | 48.35785 | 9.59470 | 33229 ft | 448 kts | 317° |
| 2026-05-03 21:47 | 48.38156 | 9.56457 | 33584 ft | 447 kts | 316° |
| 2026-05-03 21:47 | 48.40520 | 9.53430 | 33929 ft | 446 kts | 316° |
| 2026-05-03 21:47 | 48.42870 | 9.50409 | 34066 ft | 443 kts | 316° |
| 2026-05-03 21:48 | 48.47529 | 9.44411 | 34074 ft | 439 kts | 316° |
| 2026-05-03 21:48 | 48.52171 | 9.38424 | 34074 ft | 438 kts | 316° |
| 2026-05-03 21:49 | 48.54545 | 9.35359 | 34069 ft | 438 kts | 316° |
| 2026-05-03 21:49 | 48.59176 | 9.29376 | 34062 ft | 438 kts | 316° |
| 2026-05-03 21:50 | 48.64284 | 9.24306 | 34057 ft | 445 kts | 333° |
| 2026-05-03 21:50 | 48.69969 | 9.20579 | 34056 ft | 446 kts | 333° |
| 2026-05-03 21:51 | 48.75651 | 9.16823 | 34069 ft | 446 kts | 333° |
| 2026-05-03 21:51 | 48.81350 | 9.13031 | 34051 ft | 447 kts | 333° |
| 2026-05-03 21:52 | 48.87039 | 9.09233 | 34048 ft | 448 kts | 333° |
| 2026-05-03 21:52 | 48.92688 | 9.05411 | 34049 ft | 447 kts | 332° |
| 2026-05-03 21:53 | 48.98331 | 9.01476 | 34058 ft | 448 kts | 332° |
| 2026-05-03 21:53 | 49.03993 | 8.97510 | 34060 ft | 448 kts | 332° |
| 2026-05-03 21:54 | 49.09656 | 8.93562 | 34058 ft | 448 kts | 332° |
| 2026-05-03 21:54 | 49.15323 | 8.89577 | 34060 ft | 447 kts | 329° |
| 2026-05-03 21:55 | 49.20306 | 8.84106 | 34073 ft | 438 kts | 310° |
| 2026-05-03 21:55 | 49.23979 | 8.76791 | 34050 ft | 432 kts | 298° |
| 2026-05-03 21:56 | 49.27271 | 8.69078 | 34042 ft | 433 kts | 299° |
| 2026-05-03 21:56 | 49.30576 | 8.61342 | 34050 ft | 434 kts | 299° |
| 2026-05-03 21:57 | 49.33856 | 8.53626 | 34033 ft | 427 kts | 298° |
| 2026-05-03 21:57 | 49.37068 | 8.46022 | 34017 ft | 424 kts | 297° |
| 2026-05-03 21:58 | 49.40267 | 8.38413 | 34019 ft | 424 kts | 297° |
| 2026-05-03 21:58 | 49.43469 | 8.30801 | 34017 ft | 424 kts | 297° |
| 2026-05-03 21:59 | 49.46667 | 8.23169 | 34013 ft | 425 kts | 297° |
| 2026-05-03 21:59 | 49.49860 | 8.15521 | 34009 ft | 425 kts | 297° |
| 2026-05-03 22:00 | 49.53046 | 8.07871 | 34111 ft | 432 kts | 297° |
| 2026-05-03 22:00 | 49.54682 | 8.03923 | 34009 ft | 441 kts | 297° |
| 2026-05-03 22:00 | 49.56345 | 7.99913 | 34023 ft | 447 kts | 297° |
| 2026-05-03 22:01 | 49.59742 | 7.91724 | 34012 ft | 459 kts | 297° |
| 2026-05-03 22:01 | 49.63217 | 7.83319 | 34021 ft | 470 kts | 297° |
| 2026-05-03 22:02 | 49.64943 | 7.79141 | 34366 ft | 450 kts | 298° |
| 2026-05-03 22:02 | 49.66589 | 7.75207 | 34531 ft | 421 kts | 298° |
| 2026-05-03 22:02 | 49.69685 | 7.67753 | 34348 ft | 412 kts | 297° |
| 2026-05-03 22:03 | 49.71209 | 7.63996 | 34195 ft | 414 kts | 297° |
| 2026-05-03 22:03 | 49.72737 | 7.60211 | 34046 ft | 418 kts | 297° |
| 2026-05-03 22:03 | 49.75883 | 7.52421 | 34011 ft | 434 kts | 297° |
| 2026-05-03 22:04 | 49.79154 | 7.44377 | 34009 ft | 448 kts | 297° |
| 2026-05-03 22:04 | 49.82515 | 7.36120 | 34005 ft | 459 kts | 298° |
| 2026-05-03 22:05 | 49.85888 | 7.27807 | 34010 ft | 449 kts | 297° |
| 2026-05-03 22:05 | 49.87533 | 7.23746 | 34134 ft | 440 kts | 297° |
| 2026-05-03 22:05 | 49.89121 | 7.19818 | 34271 ft | 432 kts | 297° |
| 2026-05-03 22:06 | 49.90723 | 7.15849 | 34388 ft | 424 kts | 297° |
| 2026-05-03 22:06 | 49.92251 | 7.12048 | 34538 ft | 421 kts | 297° |
| 2026-05-03 22:06 | 49.93800 | 7.08171 | 34657 ft | 424 kts | 297° |
| 2026-05-03 22:06 | 49.95358 | 7.04254 | 34798 ft | 427 kts | 297° |
| 2026-05-03 22:07 | 49.96923 | 7.00326 | 35018 ft | 428 kts | 297° |
| 2026-05-03 22:07 | 49.98490 | 6.96393 | 35232 ft | 427 kts | 297° |
| 2026-05-03 22:07 | 50.00056 | 6.92468 | 35488 ft | 428 kts | 297° |
| 2026-05-03 22:07 | 50.01624 | 6.88537 | 35735 ft | 428 kts | 297° |
| 2026-05-03 22:08 | 50.03191 | 6.84607 | 35959 ft | 428 kts | 297° |
| 2026-05-03 22:08 | 50.04766 | 6.80638 | 35998 ft | 433 kts | 297° |
| 2026-05-03 22:08 | 50.07959 | 6.72554 | 35994 ft | 443 kts | 297° |
| 2026-05-03 22:09 | 50.11226 | 6.64274 | 35983 ft | 453 kts | 297° |
| 2026-05-03 22:10 | 50.16222 | 6.51555 | 35965 ft | 456 kts | 297° |
| 2026-05-03 22:10 | 50.19994 | 6.43743 | 35972 ft | 449 kts | 311° |
| 2026-05-03 22:11 | 50.24732 | 6.37536 | 35983 ft | 439 kts | 315° |
| 2026-05-03 22:11 | 50.29420 | 6.31457 | 35977 ft | 438 kts | 315° |
| 2026-05-03 22:12 | 50.34107 | 6.25340 | 35980 ft | 439 kts | 315° |
| 2026-05-03 22:12 | 50.38793 | 6.19222 | 35976 ft | 439 kts | 315° |
| 2026-05-03 22:13 | 50.43481 | 6.13098 | 35977 ft | 438 kts | 315° |
| 2026-05-03 22:13 | 50.48170 | 6.06967 | 35974 ft | 438 kts | 315° |
| 2026-05-03 22:14 | 50.52852 | 6.00827 | 36002 ft | 439 kts | 315° |
| 2026-05-03 22:14 | 50.57499 | 5.94693 | 35979 ft | 439 kts | 315° |
| 2026-05-03 22:14 | 50.59845 | 5.91589 | 35466 ft | 443 kts | 314° |
| 2026-05-03 22:15 | 50.62137 | 5.88242 | 34564 ft | 443 kts | 306° |
| 2026-05-03 22:15 | 50.64008 | 5.84508 | 33849 ft | 436 kts | 297° |
| 2026-05-03 22:15 | 50.65489 | 5.80352 | 33319 ft | 424 kts | 289° |
| 2026-05-03 22:15 | 50.66509 | 5.76139 | 32801 ft | 413 kts | 281° |
| 2026-05-03 22:16 | 50.67295 | 5.71827 | 32283 ft | 406 kts | 281° |
| 2026-05-03 22:16 | 50.68070 | 5.67565 | 31759 ft | 401 kts | 281° |
| 2026-05-03 22:16 | 50.68853 | 5.63366 | 31242 ft | 397 kts | 282° |
| 2026-05-03 22:16 | 50.69674 | 5.59234 | 30758 ft | 393 kts | 282° |
| 2026-05-03 22:17 | 50.70514 | 5.55151 | 30249 ft | 390 kts | 282° |
| 2026-05-03 22:17 | 50.71353 | 5.51113 | 29718 ft | 385 kts | 282° |
| 2026-05-03 22:17 | 50.72176 | 5.47126 | 29236 ft | 379 kts | 282° |
| 2026-05-03 22:17 | 50.72981 | 5.43193 | 28772 ft | 374 kts | 282° |
| 2026-05-03 22:18 | 50.73763 | 5.39314 | 28316 ft | 368 kts | 281° |
| 2026-05-03 22:18 | 50.74525 | 5.35486 | 27874 ft | 363 kts | 281° |
| 2026-05-03 22:18 | 50.75275 | 5.31712 | 27451 ft | 358 kts | 281° |
| 2026-05-03 22:18 | 50.76012 | 5.27993 | 27045 ft | 355 kts | 281° |
| 2026-05-03 22:19 | 50.76765 | 5.24146 | 26607 ft | 380 kts | 282° |
| 2026-05-03 22:19 | 50.77568 | 5.20017 | 26157 ft | 403 kts | 282° |
| 2026-05-03 22:19 | 50.78402 | 5.15750 | 25701 ft | 410 kts | 282° |
| 2026-05-03 22:19 | 50.79253 | 5.11454 | 25224 ft | 411 kts | 282° |
| 2026-05-03 22:20 | 50.79910 | 5.07098 | 24768 ft | 404 kts | 273° |
| 2026-05-03 22:20 | 50.79995 | 5.02704 | 24321 ft | 397 kts | 262° |
| 2026-05-03 22:20 | 50.79523 | 4.98468 | 23862 ft | 392 kts | 252° |
| 2026-05-03 22:20 | 50.78748 | 4.94348 | 23381 ft | 392 kts | 251° |
| 2026-05-03 22:21 | 50.77972 | 4.90226 | 22893 ft | 390 kts | 251° |
| 2026-05-03 22:21 | 50.77202 | 4.86122 | 22428 ft | 388 kts | 251° |
| 2026-05-03 22:21 | 50.76447 | 4.82088 | 21990 ft | 386 kts | 251° |
| 2026-05-03 22:21 | 50.75689 | 4.78034 | 21534 ft | 384 kts | 251° |
| 2026-05-03 22:22 | 50.74931 | 4.73991 | 21089 ft | 382 kts | 251° |
| 2026-05-03 22:22 | 50.74178 | 4.69989 | 20629 ft | 380 kts | 251° |
| 2026-05-03 22:22 | 50.73421 | 4.65997 | 20194 ft | 378 kts | 251° |
| 2026-05-03 22:22 | 50.72670 | 4.62043 | 19711 ft | 376 kts | 251° |
| 2026-05-03 22:23 | 50.71920 | 4.58102 | 19228 ft | 374 kts | 251° |
| 2026-05-03 22:23 | 50.71173 | 4.54187 | 18786 ft | 372 kts | 251° |
| 2026-05-03 22:23 | 50.70428 | 4.50290 | 18336 ft | 370 kts | 251° |
| 2026-05-03 22:23 | 50.69687 | 4.46415 | 17840 ft | 368 kts | 251° |
| 2026-05-03 22:24 | 50.68949 | 4.42555 | 17401 ft | 367 kts | 251° |
| 2026-05-03 22:24 | 50.68216 | 4.38712 | 16971 ft | 365 kts | 251° |
| 2026-05-03 22:24 | 50.67485 | 4.34898 | 16541 ft | 363 kts | 251° |
| 2026-05-03 22:24 | 50.66751 | 4.31097 | 16115 ft | 361 kts | 251° |
| 2026-05-03 22:25 | 50.66022 | 4.27324 | 15694 ft | 359 kts | 251° |
| 2026-05-03 22:25 | 50.65297 | 4.23574 | 15276 ft | 357 kts | 251° |
| 2026-05-03 22:25 | 50.64572 | 4.19841 | 14863 ft | 355 kts | 251° |
| 2026-05-03 22:25 | 50.63859 | 4.16174 | 14653 ft | 344 kts | 251° |
| 2026-05-03 22:26 | 50.63167 | 4.12627 | 14424 ft | 335 kts | 251° |
| 2026-05-03 22:26 | 50.62483 | 4.09139 | 14026 ft | 332 kts | 251° |
| 2026-05-03 22:26 | 50.61807 | 4.05682 | 13578 ft | 329 kts | 251° |
| 2026-05-03 22:26 | 50.61134 | 4.02244 | 13102 ft | 327 kts | 251° |
| 2026-05-03 22:27 | 50.60464 | 3.98832 | 12631 ft | 325 kts | 251° |
| 2026-05-03 22:27 | 50.59791 | 3.95430 | 12097 ft | 325 kts | 251° |
| 2026-05-03 22:27 | 50.59121 | 3.92050 | 11684 ft | 323 kts | 251° |
| 2026-05-03 22:27 | 50.58456 | 3.88675 | 11301 ft | 321 kts | 251° |
| 2026-05-03 22:28 | 50.57790 | 3.85341 | 10904 ft | 319 kts | 249° |
| 2026-05-03 22:28 | 50.56820 | 3.82234 | 10528 ft | 316 kts | 236° |
| 2026-05-03 22:28 | 50.55490 | 3.79506 | 10150 ft | 314 kts | 231° |
| 2026-05-03 22:28 | 50.54207 | 3.76967 | 10050 ft | 313 kts | 231° |
| 2026-05-03 22:29 | 50.52835 | 3.74248 | 9915 ft | 314 kts | 231° |
| 2026-05-03 22:29 | 50.51473 | 3.71548 | 9322 ft | 315 kts | 231° |
| 2026-05-03 22:29 | 50.50134 | 3.68902 | 8839 ft | 313 kts | 231° |
| 2026-05-03 22:29 | 50.48768 | 3.66199 | 8373 ft | 310 kts | 231° |
| 2026-05-03 22:30 | 50.47457 | 3.63603 | 7943 ft | 306 kts | 231° |
| 2026-05-03 22:30 | 50.46151 | 3.61010 | 7729 ft | 296 kts | 231° |
| 2026-05-03 22:30 | 50.44908 | 3.58537 | 7599 ft | 280 kts | 231° |
| 2026-05-03 22:30 | 50.43735 | 3.56202 | 7165 ft | 269 kts | 231° |
| 2026-05-03 22:31 | 50.42817 | 3.53690 | 6545 ft | 266 kts | 253° |
| 2026-05-03 22:31 | 50.42742 | 3.50850 | 5914 ft | 267 kts | 281° |
| 2026-05-03 22:31 | 50.43584 | 3.48246 | 5450 ft | 274 kts | 309° |
| 2026-05-03 22:31 | 50.45063 | 3.46338 | 5015 ft | 276 kts | 321° |
| 2026-05-03 22:32 | 50.46619 | 3.44579 | 4626 ft | 274 kts | 322° |
| 2026-05-03 22:32 | 50.48137 | 3.42885 | 4492 ft | 262 kts | 322° |
| 2026-05-03 22:32 | 50.49584 | 3.41276 | 4358 ft | 250 kts | 323° |
| 2026-05-03 22:32 | 50.50579 | 3.40381 | 4224 ft | 247 kts | 333° |
| 2026-05-03 22:33 | 50.52212 | 3.39594 | 3919 ft | 246 kts | 346° |
| 2026-05-03 22:33 | 50.53884 | 3.39035 | 3621 ft | 244 kts | 346° |
| 2026-05-03 22:33 | 50.55533 | 3.38476 | 3365 ft | 241 kts | 345° |
| 2026-05-03 22:33 | 50.57137 | 3.37928 | 3150 ft | 229 kts | 345° |
| 2026-05-03 22:34 | 50.58521 | 3.37002 | 3100 ft | 209 kts | 318° |
| 2026-05-03 22:34 | 50.59413 | 3.35332 | 3043 ft | 192 kts | 292° |
| 2026-05-03 22:34 | 50.59733 | 3.33395 | 2869 ft | 178 kts | 268° |
| 2026-05-03 22:34 | 50.59563 | 3.31523 | 2665 ft | 170 kts | 255° |
| 2026-05-03 22:35 | 50.59312 | 3.29733 | 2449 ft | 165 kts | 255° |
| 2026-05-03 22:35 | 50.59072 | 3.28020 | 2242 ft | 154 kts | 255° |
| 2026-05-03 22:35 | 50.58850 | 3.26435 | 2045 ft | 142 kts | 255° |
| 2026-05-03 22:35 | 50.58643 | 3.24961 | 1850 ft | 138 kts | 254° |
| 2026-05-03 22:36 | 50.58437 | 3.23508 | 1660 ft | 135 kts | 255° |
| 2026-05-03 22:36 | 50.58245 | 3.22068 | 1506 ft | 134 kts | 256° |
| 2026-05-03 22:36 | 50.58058 | 3.20625 | 1352 ft | 135 kts | 255° |
| 2026-05-03 22:36 | 50.57855 | 3.19190 | 1125 ft | 135 kts | 255° |
| 2026-05-03 22:37 | 50.57660 | 3.17740 | 911 ft | 136 kts | 256° |
| 2026-05-03 22:37 | 50.57445 | 3.16275 | 763 ft | 139 kts | 255° |
| 2026-05-03 22:37 | 50.57218 | 3.14798 | 586 ft | 140 kts | 255° |
| 2026-05-03 22:37 | 50.57006 | 3.13309 | 406 ft | 139 kts | 256° |
| 2026-05-03 22:38 | 50.56790 | 3.11818 | 224 ft | 139 kts | 256° |
| 2026-05-03 22:38 | 50.56594 | 3.10365 | 156 ft | 126 kts | 249° |
| 2026-05-03 22:38 | 50.56421 | 3.09280 | 151 ft | 75 kts | 257° |
| 2026-05-03 22:38 | 50.56352 | 3.08783 | 153 ft | 39 kts | 259° |
| 2026-05-03 22:39 | 50.56331 | 3.08508 | 152 ft | 21 kts | 283° |
| 2026-05-03 22:39 | 50.56343 | 3.08357 | 151 ft | 10 kts | 233° |
| 2026-05-03 22:39 | 50.56295 | 3.08378 | 152 ft | 9 kts | 110° |
| 2026-05-03 22:39 | 50.56315 | 3.08486 | 152 ft | 12 kts | 73° |
| 2026-05-03 22:40 | 50.56334 | 3.08630 | 153 ft | 15 kts | 78° |
| 2026-05-03 22:40 | 50.56365 | 3.08836 | 152 ft | 26 kts | 77° |
| 2026-05-03 22:40 | 50.56408 | 3.09144 | 156 ft | 29 kts | 78° |
| 2026-05-03 22:40 | 50.56453 | 3.09465 | 152 ft | 30 kts | 77° |
| 2026-05-03 22:41 | 50.56512 | 3.09629 | 152 ft | 13 kts | 9° |
| 2026-05-03 22:41 | 50.56595 | 3.09618 | 152 ft | 11 kts | 344° |
| 2026-05-03 22:41 | 50.56663 | 3.09630 | 152 ft | 9 kts | 45° |
| 2026-05-03 22:41 | 50.56691 | 3.09728 | 152 ft | 11 kts | 77° |
| 2026-05-03 22:42 | 50.56708 | 3.09855 | 152 ft | 17 kts | 77° |
| 2026-05-03 22:42 | 50.56743 | 3.10100 | 152 ft | 27 kts | 78° |
| 2026-05-03 22:42 | 50.56794 | 3.10338 | 151 ft | 12 kts | 34° |
| 2026-05-03 22:42 | 50.56846 | 3.10327 | 151 ft | 14 kts | 348° |
| 2026-05-03 22:43 | 50.56969 | 3.10316 | 151 ft | 13 kts | 31° |
| 2026-05-03 22:43 | 50.57004 | 3.10372 | 151 ft | 5 kts | 19° |
| 2026-05-03 22:43 | 50.57032 | 3.10364 | 151 ft | 4 kts | 344° |
| 2026-05-03 22:43 | 50.57049 | 3.10358 | 151 ft | 0 kts | 347° |